Time;durP1;ratioP1;P1;durP2;ratioP2;P2;SDS_P1;SDS_P2;PMS_P1;PMS_P2;Temp;Humidity;BMP_temperature;BMP_pressure;BME280_temperature;BME280_humidity;BME280_pressure;Samples;Min_cycle;Max_cycle;Signal;HPM_P1;HPM_P2
2021/09/16 00:02:50;;;;;;;12.90;11.63;;;;;;;22.35;82.73;99731.21;2829886;84;21028;-58
2021/09/16 00:06:52;;;;;;;12.40;11.10;;;;;;;22.33;82.47;99737.38;2829849;81;20983;-59
2021/09/16 00:10:54;;;;;;;15.15;10.60;;;;;;;22.22;82.60;99738.89;2829782;82;20968;-57
2021/09/16 00:14:57;;;;;;;15.38;12.20;;;;;;;22.12;82.68;99728.52;2829925;84;21022;-59
2021/09/16 00:18:59;;;;;;;13.85;10.53;;;;;;;22.07;82.82;99734.58;2829651;81;21007;-58
2021/09/16 00:23:01;;;;;;;14.78;10.03;;;;;;;22.12;82.81;99738.00;2830003;81;20968;-57
2021/09/16 00:27:14;;;;;;;12.33;9.53;;;;;;;22.19;82.66;99742.01;2829800;84;20972;-58
2021/09/16 00:31:16;;;;;;;10.48;9.35;;;;;;;22.19;82.04;99746.91;2829928;81;20971;-57
2021/09/16 00:35:17;;;;;;;12.35;9.70;;;;;;;22.10;82.06;99747.69;2830053;81;21031;-58
2021/09/16 00:39:20;;;;;;;13.72;11.00;;;;;;;22.06;82.26;99746.45;2830031;81;20979;-57
2021/09/16 00:43:25;;;;;;;30.05;12.65;;;;;;;22.03;82.24;99748.25;2830007;81;20991;-58
2021/09/16 00:47:27;;;;;;;17.40;11.48;;;;;;;22.02;82.21;99755.22;2830022;84;21003;-57
2021/09/16 00:51:30;;;;;;;12.43;10.48;;;;;;;21.96;82.31;99760.96;2829882;81;20952;-57
2021/09/16 00:55:34;;;;;;;12.68;11.40;;;;;;;21.91;82.40;99756.72;2830069;81;20991;-57
2021/09/16 00:59:41;;;;;;;9.93;8.50;;;;;;;21.89;82.67;99751.50;2830097;81;21047;-57
2021/09/16 01:03:44;;;;;;;12.55;10.28;;;;;;;21.79;82.53;99757.37;2830076;81;20963;-57
2021/09/16 01:07:46;;;;;;;14.35;10.25;;;;;;;21.66;82.91;99758.78;2830199;81;20991;-58
2021/09/16 01:11:48;;;;;;;12.20;9.65;;;;;;;21.67;83.18;99753.14;2830032;81;21035;-57
2021/09/16 01:16:00;;;;;;;12.15;9.25;;;;;;;21.75;82.94;99752.61;2830090;83;21030;-57
2021/09/16 01:20:04;;;;;;;9.80;8.80;;;;;;;21.81;82.56;99744.98;2830024;81;21003;-60
2021/09/16 01:24:06;;;;;;;9.18;8.18;;;;;;;21.84;82.07;99752.67;2830257;81;20980;-58
2021/09/16 01:28:29;;;;;;;10.38;8.88;;;;;;;21.85;81.91;99764.35;2830137;81;20999;-57
2021/09/16 01:41:38;;;;;;;10.32;9.00;;;;;;;21.89;81.68;99748.80;2784292;79;21182;-57
2021/09/16 01:45:39;;;;;;;13.90;9.30;;;;;;;21.78;81.83;99748.13;2867338;81;20922;-59
2021/09/16 01:49:42;;;;;;;12.00;8.93;;;;;;;21.69;82.31;99753.75;2867383;83;21472;-60
2021/09/16 01:54:07;;;;;;;11.28;10.25;;;;;;;21.63;82.68;99752.41;2867188;82;20966;-57
2021/09/16 01:58:09;;;;;;;10.15;9.05;;;;;;;21.59;82.99;99755.20;2867490;81;20958;-58
2021/09/16 02:02:11;;;;;;;14.05;10.58;;;;;;;21.54;83.16;99749.09;2867196;83;20965;-58
2021/09/16 02:06:41;;;;;;;17.62;9.93;;;;;;;21.51;83.40;99739.52;2867394;81;20930;-57
2021/09/16 02:10:44;;;;;;;13.65;10.98;;;;;;;21.41;83.67;99735.05;2867259;83;20970;-59
2021/09/16 02:14:46;;;;;;;13.48;10.85;;;;;;;21.34;84.25;99733.73;2867355;82;20970;-57
2021/09/16 02:18:48;;;;;;;12.53;10.82;;;;;;;21.35;84.49;99737.25;2864913;83;20973;-57
2021/09/16 02:23:09;;;;;;;11.43;10.25;;;;;;;21.36;84.46;99735.70;2867297;82;20970;-59
2021/09/16 02:27:12;;;;;;;12.85;10.18;;;;;;;21.36;84.42;99736.21;2867283;82;20954;-58
2021/09/16 02:31:16;;;;;;;11.65;10.32;;;;;;;21.40;84.55;99738.80;2867279;83;20941;-57
2021/09/16 02:35:18;;;;;;;12.23;10.90;;;;;;;21.52;84.09;99743.88;2867230;81;20930;-57
2021/09/16 02:39:21;;;;;;;10.82;9.23;;;;;;;21.57;83.42;99742.41;2867224;82;21038;-60
2021/09/16 02:43:34;;;;;;;9.43;8.50;;;;;;;21.46;83.14;99735.27;2867267;82;21024;-57
2021/09/16 02:47:38;;;;;;;11.13;9.93;;;;;;;21.31;83.58;99737.37;2867593;82;20965;-57
2021/09/16 02:51:40;;;;;;;10.65;9.10;;;;;;;21.20;84.21;99742.36;2867165;81;20937;-59
2021/09/16 02:55:42;;;;;;;10.78;9.45;;;;;;;21.19;84.30;99736.64;2867316;81;20969;-56
2021/09/16 02:59:44;;;;;;;13.18;10.80;;;;;;;21.20;84.48;99737.48;2867204;82;20926;-59
2021/09/16 03:03:57;;;;;;;10.58;9.05;;;;;;;21.24;83.83;99739.57;2835992;83;20989;-57
2021/09/16 03:07:59;;;;;;;11.38;10.03;;;;;;;21.23;83.88;99746.02;2867277;81;20970;-57
2021/09/16 03:12:01;;;;;;;9.78;8.60;;;;;;;21.21;83.64;99747.27;2867288;82;20958;-59
2021/09/16 03:16:04;;;;;;;10.60;9.43;;;;;;;21.21;83.69;99753.48;2867163;81;20973;-57
2021/09/16 03:20:07;;;;;;;13.93;9.40;;;;;;;21.21;83.85;99749.43;2867220;81;21001;-57
2021/09/16 03:24:08;;;;;;;12.25;8.38;;;;;;;21.25;84.06;99751.20;2867151;83;20989;-57
2021/09/16 03:28:10;;;;;;;9.73;8.15;;;;;;;21.25;84.41;99755.26;2866829;83;20950;-57
2021/09/16 03:32:14;;;;;;;8.08;7.15;;;;;;;21.25;85.07;99752.05;2867290;82;20966;-57
2021/09/16 03:36:16;;;;;;;12.15;8.03;;;;;;;21.25;85.75;99744.44;2867104;81;20964;-57
2021/09/16 03:40:18;;;;;;;9.98;7.92;;;;;;;21.26;86.37;99744.25;2867167;83;20946;-57
2021/09/16 03:44:20;;;;;;;10.25;7.62;;;;;;;21.30;86.54;99746.53;2867137;81;21058;-58
2021/09/16 03:48:22;;;;;;;9.78;8.28;;;;;;;21.39;86.67;99747.95;2867257;81;20966;-59
2021/09/16 03:52:30;;;;;;;8.83;7.55;;;;;;;21.58;86.36;99752.19;2867223;82;20970;-59
2021/09/16 03:56:33;;;;;;;15.13;8.68;;;;;;;21.72;85.79;99753.86;2867240;81;20930;-57
2021/09/16 04:00:35;;;;;;;10.40;7.58;;;;;;;21.74;85.22;99744.19;2867237;81;20948;-57
2021/09/16 04:04:37;;;;;;;9.63;7.62;;;;;;;21.74;85.28;99750.41;2867207;81;20926;-58
2021/09/16 04:08:39;;;;;;;16.48;8.28;;;;;;;21.74;85.22;99745.00;2867185;81;21539;-57
2021/09/16 04:12:41;;;;;;;8.78;7.40;;;;;;;21.79;85.49;99752.48;2867217;81;20997;-58
2021/09/16 04:16:52;;;;;;;7.75;6.97;;;;;;;21.85;85.75;99744.05;2867113;81;21000;-60
2021/09/16 04:20:55;;;;;;;6.53;5.87;;;;;;;21.95;85.56;99742.55;2866780;83;20965;-58
2021/09/16 04:24:57;;;;;;;6.92;5.83;;;;;;;22.03;85.33;99736.06;2867129;81;20922;-58
2021/09/16 04:29:02;;;;;;;7.62;5.62;;;;;;;22.01;85.01;99740.86;2867232;83;20997;-57
2021/09/16 04:33:04;;;;;;;10.98;6.37;;;;;;;21.95;85.16;99747.12;2867355;81;20981;-58
2021/09/16 04:37:24;;;;;;;8.15;6.72;;;;;;;22.00;85.46;99741.06;2867112;81;20937;-58
2021/09/16 04:41:26;;;;;;;8.90;5.90;;;;;;;22.04;85.40;99748.55;2867241;82;20990;-60
2021/09/16 04:45:28;;;;;;;9.20;6.10;;;;;;;22.09;85.20;99748.73;2867148;81;20969;-57
2021/09/16 04:49:37;;;;;;;38.60;10.85;;;;;;;22.10;84.81;99750.39;2867158;81;20985;-58
2021/09/16 04:53:39;;;;;;;13.72;7.37;;;;;;;22.15;84.92;99755.68;2867214;82;20989;-57
2021/09/16 04:58:00;;;;;;;14.83;7.47;;;;;;;22.20;84.73;99762.12;2867126;83;20946;-58
2021/09/16 05:02:02;;;;;;;7.83;6.58;;;;;;;22.25;84.62;99773.67;2867040;81;20926;-57
2021/09/16 05:06:04;;;;;;;8.48;5.72;;;;;;;22.24;84.40;99768.77;2867113;83;20957;-58
2021/09/16 05:10:08;;;;;;;8.70;6.22;;;;;;;22.25;84.43;99773.67;2867276;81;20902;-58
2021/09/16 05:14:37;;;;;;;7.85;6.12;;;;;;;22.26;84.78;99769.91;2867202;81;20934;-57
2021/09/16 05:18:42;;;;;;;7.97;6.58;;;;;;;22.35;84.83;99774.02;2867308;82;20984;-57
2021/09/16 05:22:44;;;;;;;11.57;6.87;;;;;;;22.42;84.62;99777.23;2867063;81;21017;-57
2021/09/16 05:27:19;;;;;;;12.95;5.62;;;;;;;22.47;84.72;99772.02;2867203;81;20966;-57
2021/09/16 05:31:21;;;;;;;10.55;7.47;;;;;;;22.42;84.90;99773.98;2867337;81;20946;-57
2021/09/16 05:35:23;;;;;;;11.43;7.58;;;;;;;22.37;85.87;99775.98;2867367;81;21012;-57
2021/09/16 05:39:37;;;;;;;10.20;6.70;;;;;;;22.42;86.18;99777.23;2867326;83;20958;-57
2021/09/16 05:43:40;;;;;;;7.83;5.93;;;;;;;22.54;86.43;99783.64;2867621;82;20957;-57
2021/09/16 05:47:45;;;;;;;11.18;6.80;;;;;;;22.65;86.95;99790.25;2867430;82;20942;-58
2021/09/16 05:51:48;;;;;;;6.20;5.55;;;;;;;22.79;87.04;99785.57;2867389;81;21001;-59
2021/09/16 05:56:02;;;;;;;12.23;7.87;;;;;;;22.97;85.24;99790.26;2867324;82;21010;-58
2021/09/16 06:00:06;;;;;;;9.88;7.35;;;;;;;23.17;85.61;99783.84;2867237;82;20941;-58
2021/09/16 06:04:08;;;;;;;9.00;7.85;;;;;;;23.31;84.33;99789.50;2867252;81;21013;-57
2021/09/16 06:08:28;;;;;;;7.85;7.15;;;;;;;23.34;83.39;99788.20;2867210;83;20922;-58
2021/09/16 06:12:49;;;;;;;8.38;6.85;;;;;;;23.36;83.40;99796.95;2867296;81;20945;-57
2021/09/16 06:17:14;;;;;;;13.13;8.75;;;;;;;23.38;83.26;99794.84;2867237;83;20910;-57
2021/09/16 06:21:16;;;;;;;9.30;8.20;;;;;;;23.42;82.88;99799.31;2867601;81;20943;-58
2021/09/16 06:25:19;;;;;;;12.20;9.63;;;;;;;23.42;82.45;99807.45;2867572;81;20989;-57
2021/09/16 06:29:20;;;;;;;9.73;8.05;;;;;;;23.37;82.62;99806.75;2867466;81;21024;-57
2021/09/16 06:33:25;;;;;;;11.55;9.58;;;;;;;23.35;83.06;99810.22;2867588;81;20937;-58
2021/09/16 06:37:28;;;;;;;12.70;10.25;;;;;;;23.30;83.00;99805.98;2867472;81;21032;-58
2021/09/16 06:41:30;;;;;;;15.90;11.30;;;;;;;23.30;83.95;99818.20;2867275;81;20965;-58
2021/09/16 06:45:32;;;;;;;14.63;11.65;;;;;;;23.22;83.77;99811.98;2866979;81;21013;-59
2021/09/16 06:49:39;;;;;;;16.67;11.28;;;;;;;23.17;84.21;99823.18;2867472;81;21021;-57
2021/09/16 06:53:37;;;;;;;13.25;11.15;;;;;;;23.08;84.35;99829.40;2866675;82;20973;-58
2021/09/16 06:57:39;;;;;;;13.88;11.12;;;;;;;23.07;85.00;99831.27;2867244;83;20938;-57
2021/09/16 07:01:41;;;;;;;13.13;11.68;;;;;;;23.04;85.10;99835.78;2867182;83;20961;-58
2021/09/16 07:05:43;;;;;;;12.93;11.43;;;;;;;23.05;85.19;99834.73;2867333;81;20967;-59
2021/09/16 07:09:45;;;;;;;14.53;11.40;;;;;;;23.04;85.40;99838.49;2868560;81;20934;-58
2021/09/16 07:13:47;;;;;;;12.28;9.58;;;;;;;23.03;86.10;99837.38;2867083;81;20946;-58
2021/09/16 07:18:20;;;;;;;14.00;11.73;;;;;;;23.04;86.00;99838.49;2867069;82;20938;-58
2021/09/16 07:22:24;;;;;;;19.00;11.22;;;;;;;23.02;86.03;99835.17;2867032;83;20887;-58
2021/09/16 07:26:27;;;;;;;9.75;7.40;;;;;;;23.16;86.36;99845.39;2867192;83;20934;-58
2021/09/16 07:30:41;;;;;;;10.38;8.75;;;;;;;23.20;84.92;99846.64;2907973;81;20983;-59
2021/09/16 07:34:42;;;;;;;9.60;8.63;;;;;;;23.14;85.52;99852.11;2917393;80;20944;-58
2021/09/16 07:38:44;;;;;;;10.68;8.93;;;;;;;23.17;86.23;99846.23;2917382;81;20991;-59
2021/09/16 07:42:47;;;;;;;11.33;8.23;;;;;;;23.22;86.04;99853.19;2917117;81;21010;-58
2021/09/16 07:46:58;;;;;;;11.12;9.18;;;;;;;23.13;86.20;99857.23;2917410;80;20948;-57
2021/09/16 07:51:00;;;;;;;18.77;10.45;;;;;;;22.95;87.61;99860.97;2917272;80;20963;-59
2021/09/16 07:55:02;;;;;;;13.78;10.88;;;;;;;22.79;88.59;99856.06;2857707;81;21035;-61
2021/09/16 07:59:33;;;;;;;10.03;9.03;;;;;;;22.82;89.25;99851.58;2857689;82;20995;-60
2021/09/16 08:03:35;;;;;;;8.90;8.00;;;;;;;22.81;89.20;99862.13;2812227;83;20960;-57
2021/09/16 08:07:37;;;;;;;12.40;10.35;;;;;;;22.81;89.42;99866.19;2833104;84;20986;-58
2021/09/16 08:11:44;;;;;;;12.30;10.80;;;;;;;22.90;89.09;99873.55;2832969;82;20987;-59
2021/09/16 08:15:46;;;;;;;20.77;10.70;;;;;;;22.95;88.68;99870.47;2832294;84;20956;-57
2021/09/16 08:19:48;;;;;;;10.70;9.13;;;;;;;23.00;88.49;99873.07;2832248;81;21030;-57
2021/09/16 08:24:06;;;;;;;10.15;9.00;;;;;;;22.96;87.08;99880.80;2832229;82;21003;-57
2021/09/16 08:28:08;;;;;;;9.10;8.05;;;;;;;22.83;87.68;99883.06;2832301;81;20955;-57
2021/09/16 08:32:11;;;;;;;15.63;8.20;;;;;;;22.81;88.19;99883.81;2832127;84;20975;-58
2021/09/16 08:40:58;;;;;;;14.07;9.35;;;;;;;22.72;87.84;99879.16;2678350;84;68869;-76
2021/09/16 08:44:59;;;;;;;12.07;9.55;;;;;;;22.63;88.98;99874.52;2773897;84;21592;-75
2021/09/16 08:49:01;;;;;;;8.70;7.37;;;;;;;22.53;89.18;99872.77;2777040;85;21001;-75
2021/09/16 08:53:04;;;;;;;12.03;8.35;;;;;;;22.46;89.98;99878.72;2796811;83;21012;-76
2021/09/16 08:57:10;;;;;;;14.07;8.40;;;;;;;22.31;90.14;99883.05;2776347;84;20945;-75
2021/09/16 09:01:14;;;;;;;7.95;7.17;;;;;;;22.20;90.64;99885.88;2736403;87;21034;-75
2021/09/16 09:13:41;;;;;;;9.50;7.53;;;;;;;22.11;90.77;99882.59;2832617;81;21047;-57
2021/09/16 09:18:05;;;;;;;13.43;8.68;;;;;;;22.05;91.43;99889.67;2832445;84;20927;-57
2021/09/16 09:22:31;;;;;;;8.48;7.45;;;;;;;22.04;92.01;99892.08;2776490;81;21073;-57
2021/09/16 09:35:01;;;;;;;8.63;6.95;;;;;;;21.89;94.65;99901.77;2834554;80;21095;-58
2021/09/16 09:39:15;;;;;;;10.00;8.28;;;;;;;21.87;95.24;99898.44;2834636;81;20945;-58
2021/09/16 09:43:37;;;;;;;9.98;8.33;;;;;;;21.80;96.00;99901.14;2835092;81;21004;-57
2021/09/16 09:47:47;;;;;;;10.63;8.75;;;;;;;21.67;97.26;99892.52;2830618;81;20953;-57
2021/09/16 09:51:59;;;;;;;16.10;8.70;;;;;;;21.63;97.91;99900.72;2835006;81;20968;-62
2021/09/16 09:56:06;;;;;;;15.58;10.20;;;;;;;21.63;98.53;99894.48;2834513;82;20944;-59
2021/09/16 10:00:47;;;;;;;9.90;8.88;;;;;;;21.70;100.00;99893.98;2827101;81;20940;-58
2021/09/16 10:04:50;;;;;;;12.53;8.80;;;;;;;21.87;99.27;99890.31;2834812;84;21003;-61
2021/09/16 10:09:22;;;;;;;12.07;9.85;;;;;;;22.05;100.00;99893.73;2834931;84;20956;-58
2021/09/16 10:13:24;;;;;;;12.25;9.50;;;;;;;22.24;98.82;99896.08;2834942;81;21012;-57
2021/09/16 10:17:26;;;;;;;9.98;8.78;;;;;;;22.35;98.12;99894.58;2834601;84;20972;-58
2021/09/16 10:21:29;;;;;;;9.93;8.43;;;;;;;22.39;94.77;99899.06;2835032;84;20976;-57
2021/09/16 10:25:32;;;;;;;12.10;10.32;;;;;;;22.35;95.09;99895.13;2834965;84;20956;-57
2021/09/16 10:29:36;;;;;;;11.78;10.00;;;;;;;22.38;96.36;99895.50;2834927;83;20991;-58
2021/09/16 10:33:38;;;;;;;12.98;10.32;;;;;;;22.38;95.04;99902.28;2835262;84;20976;-58
2021/09/16 10:37:41;;;;;;;10.35;9.35;;;;;;;22.38;93.78;99902.28;2834939;84;20960;-58
2021/09/16 10:41:48;;;;;;;11.88;10.43;;;;;;;22.36;94.02;99900.31;2834991;82;20976;-57
2021/09/16 10:45:52;;;;;;;11.95;10.15;;;;;;;22.43;95.68;99904.89;2834756;84;21011;-59
2021/09/16 10:49:53;;;;;;;11.83;10.53;;;;;;;22.47;95.08;99902.91;2834834;84;20941;-58
2021/09/16 10:54:56;;;;;;;12.43;9.93;;;;;;;22.59;94.70;99907.13;2834886;84;20921;-58
2021/09/16 10:59:00;;;;;;;12.53;9.20;;;;;;;22.66;94.66;99898.47;2834820;81;21009;-58
2021/09/16 11:03:03;;;;;;;14.45;10.93;;;;;;;22.75;92.16;99896.86;2834951;81;20972;-58
2021/09/16 11:07:06;;;;;;;15.57;11.67;;;;;;;22.83;91.37;99902.05;2835234;84;20955;-58
2021/09/16 11:11:08;;;;;;;10.78;9.53;;;;;;;22.95;90.61;99898.94;2834717;81;20987;-57
2021/09/16 11:15:29;;;;;;;11.20;9.68;;;;;;;23.04;89.89;99893.28;2834746;81;21004;-58
2021/09/16 11:19:31;;;;;;;11.15;9.98;;;;;;;23.05;89.00;99897.65;2834842;84;20940;-57
2021/09/16 11:28:16;;;;;;;11.90;10.70;;;;;;;23.07;89.54;99888.22;2834881;81;21043;-58
2021/09/16 11:32:19;;;;;;;15.03;10.18;;;;;;;23.16;90.02;99885.27;2834809;84;20964;-58
2021/09/16 11:36:21;;;;;;;19.87;9.05;;;;;;;23.30;88.99;99894.17;2834876;84;20960;-57
2021/09/16 11:40:31;;;;;;;13.40;8.65;;;;;;;23.36;87.92;99889.21;2834771;84;20968;-58
2021/09/16 11:44:33;;;;;;;10.48;9.53;;;;;;;23.33;88.56;99900.00;2834836;84;20929;-58
2021/09/16 11:48:35;;;;;;;10.03;8.70;;;;;;;23.33;87.63;99885.59;2834532;83;21007;-58
2021/09/16 11:53:28;;;;;;;13.10;9.55;;;;;;;23.29;87.53;99888.44;2834809;84;20953;-59
2021/09/16 11:57:32;;;;;;;10.88;9.73;;;;;;;23.31;86.59;99887.18;2834844;84;21453;-58
2021/09/16 12:01:34;;;;;;;14.98;10.43;;;;;;;23.44;87.15;99889.47;2834771;84;20992;-57
2021/09/16 12:05:49;;;;;;;11.57;10.20;;;;;;;23.64;86.07;99879.27;2834847;84;21013;-59
2021/09/16 12:09:56;;;;;;;16.12;13.22;;;;;;;23.91;84.71;99883.63;2834801;81;20965;-60
2021/09/16 12:14:01;;;;;;;18.52;11.45;;;;;;;24.04;84.33;99874.03;2833350;81;20940;-58
2021/09/16 12:18:09;;;;;;;14.80;11.97;;;;;;;24.03;82.23;99875.60;2834606;84;20936;-60
2021/09/16 12:22:11;;;;;;;16.05;11.95;;;;;;;23.93;83.22;99879.65;2834636;84;20972;-58
2021/09/16 12:26:34;;;;;;;18.50;11.73;;;;;;;23.91;83.08;99870.05;2834804;84;20997;-58
2021/09/16 12:30:38;;;;;;;14.03;12.13;;;;;;;23.93;83.67;99862.51;2834722;84;21004;-58
2021/09/16 12:34:43;;;;;;;14.03;12.43;;;;;;;23.98;81.79;99858.61;2834648;84;20972;-58
2021/09/16 12:38:55;;;;;;;22.42;14.33;;;;;;;24.01;82.38;99858.67;2834876;81;21441;-60
2021/09/16 12:43:06;;;;;;;12.80;11.48;;;;;;;23.94;83.66;99861.45;2834555;84;21027;-57
2021/09/16 12:47:15;;;;;;;17.05;12.70;;;;;;;23.89;82.37;99864.02;2834906;84;21031;-57
2021/09/16 12:51:20;;;;;;;16.77;12.40;;;;;;;23.89;82.58;99864.86;2834827;84;20926;-58
2021/09/16 12:55:35;;;;;;;14.65;12.15;;;;;;;23.95;82.23;99865.83;2834821;84;20953;-58
2021/09/16 12:59:37;;;;;;;;;;;;;;;23.92;81.57;99866.28;2837089;84;20948;-59
2021/09/16 13:03:39;;;;;;;12.45;9.53;;;;;;;23.79;81.32;99859.95;2808711;84;20099;-57
2021/09/16 13:07:44;;;;;;;11.60;10.48;;;;;;;23.84;80.85;99866.58;2834956;84;21008;-59
2021/09/16 13:11:45;;;;;;;15.23;11.87;;;;;;;23.80;80.97;99867.03;2835170;84;20972;-57
2021/09/16 13:15:49;;;;;;;14.13;12.63;;;;;;;23.72;81.28;99854.27;2835006;84;20952;-57
2021/09/16 13:19:55;;;;;;;10.58;8.68;;;;;;;23.57;80.64;99860.88;2834899;84;20932;-57
2021/09/16 13:24:10;;;;;;;8.88;7.75;;;;;;;23.45;80.72;99867.55;2834884;83;20975;-57
2021/09/16 13:28:12;;;;;;;6.92;6.28;;;;;;;23.36;80.21;99861.56;2835025;83;21040;-57
2021/09/16 13:32:18;;;;;;;8.03;6.25;;;;;;;23.26;80.90;99869.35;2834458;84;20956;-58
2021/09/16 13:36:20;;;;;;;7.70;5.10;;;;;;;23.07;78.61;99873.84;2834952;84;20960;-58
2021/09/16 13:40:23;;;;;;;7.30;5.90;;;;;;;22.88;78.19;99875.11;2835088;84;20980;-59
2021/09/16 13:44:25;;;;;;;10.40;7.05;;;;;;;22.80;77.44;99874.83;2835031;84;20999;-57
2021/09/16 13:48:27;;;;;;;9.75;6.08;;;;;;;22.76;76.60;99879.03;2835183;84;20945;-58
2021/09/16 13:52:34;;;;;;;11.22;6.67;;;;;;;22.65;75.80;99877.84;2835087;84;21000;-57
2021/09/16 13:56:37;;;;;;;6.78;4.90;;;;;;;22.55;76.21;99880.16;2834197;84;20989;-57
2021/09/16 14:00:39;;;;;;;11.35;6.58;;;;;;;22.59;76.33;99880.58;2778456;86;20979;-57
2021/09/16 14:04:41;;;;;;;6.55;5.85;;;;;;;22.64;77.30;99880.23;2778507;81;21015;-57
2021/09/16 14:08:43;;;;;;;9.05;7.05;;;;;;;22.70;76.94;99881.77;2778495;82;21003;-57
2021/09/16 14:13:03;;;;;;;7.70;6.15;;;;;;;22.67;76.81;99886.58;2778548;86;21027;-57
2021/09/16 14:17:05;;;;;;;7.83;6.83;;;;;;;22.68;77.20;99888.24;2778469;86;20987;-58
2021/09/16 14:21:08;;;;;;;11.40;8.50;;;;;;;22.80;78.51;99878.09;2778469;86;21071;-57
2021/09/16 14:25:14;;;;;;;15.83;11.35;;;;;;;22.96;78.71;99882.97;2775855;83;21003;-58
2021/09/16 14:29:16;;;;;;;15.23;11.93;;;;;;;22.91;78.51;99886.05;2778663;86;20975;-57
2021/09/16 14:49:59;;;;;;;24.37;14.98;;;;;;;22.94;77.74;99879.65;2870169;81;21099;-58
2021/09/16 14:54:11;;;;;;;18.12;13.80;;;;;;;22.87;76.98;99891.07;2877924;82;20945;-58
2021/09/16 14:58:13;;;;;;;17.05;13.45;;;;;;;22.73;78.22;99877.27;2877990;82;20958;-57
2021/09/16 15:02:16;;;;;;;18.05;12.65;;;;;;;22.58;78.70;99883.79;2826583;83;20943;-57
2021/09/16 15:06:18;;;;;;;16.70;10.98;;;;;;;22.39;79.20;99890.39;2877888;81;21038;-57
2021/09/16 15:10:21;;;;;;;15.43;11.80;;;;;;;22.24;80.21;99890.66;2826357;83;23581;-57
2021/09/16 15:14:24;;;;;;;11.38;10.23;;;;;;;22.22;80.38;99891.94;2877814;82;21001;-57
2021/09/16 15:18:27;;;;;;;14.05;10.80;;;;;;;22.21;80.53;99897.86;2826880;84;21007;-57
2021/09/16 15:22:31;;;;;;;13.65;10.30;;;;;;;22.13;80.04;99892.69;2878053;83;20942;-57
2021/09/16 15:26:34;;;;;;;13.75;11.10;;;;;;;22.08;80.11;99889.76;2826756;83;21007;-58
2021/09/16 15:30:36;;;;;;;15.75;9.63;;;;;;;22.04;80.28;99887.17;2877847;81;20993;-57
2021/09/16 15:34:53;;;;;;;17.48;11.63;;;;;;;22.04;80.78;99896.64;2826736;84;20998;-57
2021/09/16 15:38:57;;;;;;;18.40;12.58;;;;;;;21.96;79.89;99891.77;2877819;83;20946;-57
2021/09/16 15:43:07;;;;;;;13.15;9.18;;;;;;;21.86;80.48;99896.77;2877935;83;20996;-58
2021/09/16 15:47:10;;;;;;;11.33;8.15;;;;;;;21.82;80.39;99900.95;2877769;83;20977;-57
2021/09/16 15:51:33;;;;;;;11.97;7.92;;;;;;;21.75;79.71;99903.66;2877776;82;20910;-57
2021/09/16 15:55:35;;;;;;;10.08;7.40;;;;;;;21.73;79.65;99901.67;2877861;81;20973;-57
2021/09/16 15:59:43;;;;;;;10.03;8.88;;;;;;;21.72;79.83;99908.67;2877817;80;21008;-59
2021/09/16 16:03:46;;;;;;;9.60;8.05;;;;;;;21.65;79.05;99911.38;2877864;81;20906;-57
2021/09/16 16:07:52;;;;;;;10.32;7.62;;;;;;;21.52;79.14;99912.18;2877694;80;20992;-62
2021/09/16 16:11:53;;;;;;;9.70;7.53;;;;;;;21.52;79.56;99913.53;2877453;82;20977;-59
2021/09/16 16:15:55;;;;;;;8.43;7.30;;;;;;;21.51;79.21;99915.89;2877735;83;20957;-57
2021/09/16 16:19:58;;;;;;;8.65;6.47;;;;;;;21.47;79.08;99910.09;2877880;80;20970;-57
2021/09/16 16:24:00;;;;;;;8.75;7.87;;;;;;;21.43;78.16;99910.19;2877902;83;20981;-59
2021/09/16 16:28:03;;;;;;;10.20;8.15;;;;;;;21.33;78.27;99910.59;2877840;83;20989;-57
2021/09/16 16:32:14;;;;;;;8.63;7.22;;;;;;;21.21;78.59;99919.81;2877879;82;20937;-57
2021/09/16 16:36:16;;;;;;;11.70;8.63;;;;;;;21.10;78.78;99919.08;2877985;82;20965;-57
2021/09/16 16:40:48;;;;;;;14.25;11.45;;;;;;;21.01;79.07;99929.75;2877784;81;20914;-57
2021/09/16 16:44:50;;;;;;;13.65;9.75;;;;;;;20.92;79.73;99925.89;2877949;83;20930;-62
2021/09/16 16:48:54;;;;;;;11.97;10.13;;;;;;;20.86;79.70;99918.59;2877699;83;20976;-58
2021/09/16 16:52:56;;;;;;;13.60;9.90;;;;;;;20.82;79.58;99922.22;2877831;82;21439;-58
2021/09/16 16:56:58;;;;;;;12.37;9.03;;;;;;;20.77;79.75;99926.52;2877827;82;20977;-57
2021/09/16 17:01:00;;;;;;;17.32;7.78;;;;;;;20.72;80.21;99926.30;2877792;81;21006;-58
2021/09/16 17:05:08;;;;;;;13.30;8.80;;;;;;;20.71;80.39;99922.75;2877912;81;20969;-58
2021/09/16 17:09:11;;;;;;;17.00;9.68;;;;;;;20.65;80.90;99921.71;2877902;81;20985;-57
2021/09/16 17:13:20;;;;;;;14.93;7.53;;;;;;;20.60;80.68;99925.51;2877910;82;21083;-63
2021/09/16 17:17:22;;;;;;;14.75;8.00;;;;;;;20.60;80.68;99925.51;2878032;80;20937;-57
2021/09/16 17:21:24;;;;;;;10.55;7.05;;;;;;;20.63;80.51;99923.75;2878037;83;20996;-58
2021/09/16 17:25:45;;;;;;;11.60;7.45;;;;;;;20.60;80.26;99932.80;2877971;83;20989;-57
2021/09/16 17:29:46;;;;;;;10.82;7.97;;;;;;;20.56;80.14;99939.11;2877989;83;20961;-61
2021/09/16 17:34:19;;;;;;;10.98;7.65;;;;;;;20.52;80.41;99938.67;2878005;83;21001;-62
2021/09/16 17:38:21;;;;;;;10.38;7.50;;;;;;;20.49;80.11;99945.01;2878135;83;21020;-57
2021/09/16 17:42:23;;;;;;;12.13;8.93;;;;;;;20.43;80.57;99949.84;2878092;81;20917;-57
2021/09/16 17:46:27;;;;;;;26.23;9.85;;;;;;;20.38;80.88;99956.67;2878073;80;21028;-57
2021/09/16 17:50:29;;;;;;;21.35;8.70;;;;;;;20.31;81.39;99959.02;2877857;82;21008;-57
2021/09/16 17:54:31;;;;;;;11.63;8.10;;;;;;;20.15;82.56;99954.77;2877952;83;20948;-57
2021/09/16 17:58:43;;;;;;;12.60;8.13;;;;;;;19.93;83.86;99955.63;2877567;81;20997;-59
2021/09/16 18:02:45;;;;;;;13.65;9.15;;;;;;;19.82;84.89;99958.84;2878127;80;21009;-57
2021/09/16 18:06:47;;;;;;;17.23;11.28;;;;;;;19.77;86.04;99962.13;2878179;83;21491;-59
2021/09/16 18:10:52;;;;;;;14.20;11.03;;;;;;;19.74;86.15;99957.13;2878070;80;21020;-62
2021/09/16 18:14:54;;;;;;;13.47;10.20;;;;;;;19.70;86.49;99967.98;2878228;82;20929;-60
2021/09/16 18:18:56;;;;;;;11.48;8.33;;;;;;;19.66;87.00;99968.06;2877981;80;20976;-59
2021/09/16 18:23:03;;;;;;;10.50;8.85;;;;;;;19.57;86.40;99961.96;2877954;83;20914;-58
2021/09/16 18:27:05;;;;;;;13.70;12.25;;;;;;;19.54;87.02;99963.17;2873750;81;20973;-57
2021/09/16 18:31:07;;;;;;;12.53;10.90;;;;;;;19.56;87.85;99962.98;2878075;83;20965;-58
2021/09/16 18:35:10;;;;;;;13.78;10.58;;;;;;;19.56;88.06;99969.73;2878068;80;20945;-57
2021/09/16 18:39:22;;;;;;;11.35;10.03;;;;;;;19.58;88.13;99963.63;2877952;82;20977;-58
2021/09/16 18:43:23;;;;;;;18.55;11.00;;;;;;;19.59;88.22;99964.45;2877982;83;21000;-57
2021/09/16 18:47:25;;;;;;;11.78;10.03;;;;;;;19.62;88.22;99970.80;2878117;81;20925;-58
2021/09/16 18:51:27;;;;;;;14.50;9.83;;;;;;;19.65;88.03;99974.45;2878007;81;21001;-58
2021/09/16 18:55:29;;;;;;;15.32;12.23;;;;;;;19.65;87.96;99965.02;2878098;82;20941;-59
2021/09/16 18:59:44;;;;;;;11.50;8.55;;;;;;;19.66;87.86;99968.88;2878022;80;21004;-57
2021/09/16 19:03:46;;;;;;;16.32;11.22;;;;;;;19.64;87.54;99966.89;2878009;83;20937;-60
2021/09/16 19:07:56;;;;;;;11.63;9.48;;;;;;;19.58;87.76;99960.08;2851412;82;20965;-62
2021/09/16 19:11:58;;;;;;;16.25;11.73;;;;;;;19.55;88.09;99966.19;2878045;82;20989;-57
2021/09/16 19:16:00;;;;;;;11.43;9.33;;;;;;;19.49;88.12;99968.31;2877820;83;20952;-58
2021/09/16 19:20:05;;;;;;;15.75;10.68;;;;;;;19.46;88.37;99961.96;2878091;81;20960;-58
2021/09/16 19:24:07;;;;;;;12.93;11.43;;;;;;;19.45;88.53;99962.96;2878080;83;21586;-58
2021/09/16 19:28:09;;;;;;;17.17;11.53;;;;;;;19.45;88.67;99956.75;2877970;83;20965;-58
2021/09/16 19:32:10;;;;;;;16.12;11.15;;;;;;;19.46;88.72;99964.66;2877918;80;21004;-57
2021/09/16 19:36:13;;;;;;;17.95;12.33;;;;;;;19.47;88.85;99968.17;2877887;82;20941;-58
2021/09/16 19:40:31;;;;;;;14.35;12.85;;;;;;;19.49;88.93;99963.42;2877827;83;21008;-58
2021/09/16 19:44:33;;;;;;;20.92;11.08;;;;;;;19.50;89.01;99959.20;2877698;81;21035;-58
2021/09/16 19:48:35;;;;;;;12.55;10.40;;;;;;;19.45;88.95;99965.66;2877893;83;20949;-57
2021/09/16 19:52:42;;;;;;;18.62;9.48;;;;;;;19.34;89.25;99961.61;2877958;83;21025;-61
2021/09/16 19:56:43;;;;;;;12.53;9.15;;;;;;;19.22;89.61;99964.50;2877983;83;20957;-57